Howes Cave, NY (12092)

1:19 AM EDT on March 28, 2015 (GMT -0400)
Schoharie Village | | Change Station
CLOSE
Current Station
Personal Weather Station
Location: Schoharie, NY
Elevation: 597 ft
Nearby Weather Stations

Elev 597 ft 42.67 °N, 74.30 °W | Updated 4 minutes ago

Overcast
Overcast
29.8 °F
Feels Like 30 °F
N
0.0
Wind Variable Wind from West
Gusts 0.0 mph

Today
High -- | Low -- °F
--% Chance of Precip.
Yesterday
High -- | Low -- °F
Precip. -- in
6:47 AM 7:18 PM
First Quarter, 59% visible
Pressure 29.88 in
Visibility 7.0 miles
Clouds Mostly Cloudy 2700 ft
Overcast 3100 ft
Windchill 30 °F
Dew Point 20 °F
Humidity 67%
Rainfall 0.00 in
Snow Depth Not available.
UV 0.0 out of 12
Pollen 1.50 out of 12
Air Quality Not available.
Flu Activity Not available.
METAR KALB 280451Z 33005KT 7SM -SN BKN027 OVC031 00/M03 A2987 RMK AO2 SLP117 P0000 T00001033 400780000

More Conditions Fewer Conditions

Pressure 29.88 in
Visibility 7.0 miles
Clouds Mostly Cloudy 2700 ft
Overcast 3100 ft
Windchill 30 °F
Dew Point 20 °F
Humidity 67%
Rainfall 0.00 in
Snow Depth Not available.
UV 0.0 out of 12
Pollen 1.50 out of 12
Air Quality Not available.
Flu Activity Not available.
METAR KALB 280451Z 33005KT 7SM -SN BKN027 OVC031 00/M03 A2987 RMK AO2 SLP117 P0000 T00001033 400780000

More Conditions Fewer Conditions

10-Day Weather Forecast

Almanac

Astronomy

Mar. 28, 2015 Rise Set
Actual Time
Civil Twilight
Nautical Twilight
Astronomical Twilight
Moon
Length of Visible Light
Length of Day
Tomorrow will be .
, % of the Moon is Illuminated

Today's Extremes

State Highs State Lows

Community

WunderPhotos

Upload Photos

1,808,934 photos uploaded!

WunderBlogs® & News

Nearby

Air Quality

  Air Quality AQ Index Pollutant
Not available.

Snow Depth

Station Depth Elevation

Earthquake Activity

City Distance Mag. Time & Date
Minimum magnitude displayed is 2.5.

Coastal Water Temperatures

Place Temperature

Stations

Nearby Weather Stations

Station Location Temp. Windchill Dew Point Humidity Wind Precip. Elev Updated Type